createdAt,value
2022-12-19T05:01:58.454Z,66.00
2022-12-19T05:04:31.509Z,66.80
2022-12-19T05:07:03.157Z,63.90
2022-12-19T05:09:34.783Z,61.57
2022-12-19T05:12:06.808Z,65.60
2022-12-19T05:14:38.425Z,66.07
2022-12-19T05:17:11.779Z,70.80
2022-12-19T05:19:43.427Z,59.77
2022-12-19T05:22:15.113Z,67.97
2022-12-19T05:24:46.772Z,64.83
2022-12-19T05:27:18.458Z,67.50
2022-12-19T05:29:50.101Z,59.93
2022-12-19T05:32:23.090Z,66.20
2022-12-19T05:34:54.727Z,69.67
2022-12-19T05:37:26.484Z,69.47
2022-12-19T05:39:58.201Z,61.27
2022-12-19T05:42:29.879Z,62.83
2022-12-19T05:45:01.504Z,65.03
2022-12-19T05:47:34.558Z,74.30
2022-12-19T05:50:07.121Z,63.80
2022-12-19T05:52:38.806Z,63.50
2022-12-19T05:55:10.622Z,66.03
2022-12-19T05:57:42.266Z,63.53
2022-12-19T06:00:14.813Z,59.07
2022-12-19T06:02:47.965Z,61.30
2022-12-19T06:05:19.692Z,65.00
2022-12-19T06:07:51.349Z,59.10
2022-12-19T06:10:22.997Z,58.40
2022-12-19T06:12:54.675Z,58.83
2022-12-19T06:15:26.355Z,57.80
2022-12-19T06:17:59.387Z,54.10
2022-12-19T06:20:31.022Z,58.40
2022-12-19T06:23:02.682Z,49.13
2022-12-19T06:25:34.785Z,58.47
2022-12-19T06:28:06.475Z,53.97
2022-12-19T06:30:39.306Z,58.60
2022-12-19T06:33:12.422Z,54.63
2022-12-19T06:35:44.074Z,59.77
2022-12-19T06:38:15.794Z,59.47
2022-12-19T06:40:47.441Z,53.47
2022-12-19T06:43:19.144Z,48.70
2022-12-19T06:45:50.826Z,55.37
2022-12-19T06:48:23.940Z,55.03
2022-12-19T06:50:55.595Z,48.90
2022-12-19T06:53:27.250Z,51.17
2022-12-19T06:55:59.340Z,58.22
2022-12-19T06:58:31.014Z,55.67
2022-12-19T07:01:02.690Z,60.23
2022-12-19T07:03:37.268Z,53.23
2022-12-19T07:06:08.937Z,56.83
2022-12-19T07:08:40.602Z,62.57
2022-12-19T07:11:12.298Z,60.83
2022-12-19T07:13:43.995Z,53.77
2022-12-19T07:16:15.640Z,54.07
2022-12-19T07:18:49.068Z,54.13
2022-12-19T07:21:20.710Z,53.57
2022-12-19T07:23:52.363Z,56.67
2022-12-19T07:26:24.015Z,61.57
2022-12-19T07:28:55.671Z,59.23
2022-12-19T07:31:27.357Z,59.43
2022-12-19T07:34:00.403Z,56.03
2022-12-19T07:36:32.357Z,65.23
2022-12-19T07:39:04.188Z,57.33
2022-12-19T07:41:36.587Z,63.00
2022-12-19T07:44:08.414Z,60.53
2022-12-19T07:46:40.062Z,61.17
2022-12-19T07:49:16.976Z,65.83
2022-12-19T07:51:51.305Z,62.13
2022-12-19T07:54:22.976Z,62.07
2022-12-19T07:56:54.646Z,60.97
2022-12-19T07:59:31.286Z,60.53
2022-12-19T08:02:06.379Z,63.87
2022-12-19T08:04:40.955Z,58.27
2022-12-19T08:07:12.618Z,55.07
2022-12-19T08:09:44.262Z,54.70
2022-12-19T08:12:15.908Z,59.23
2022-12-19T08:14:47.557Z,58.60
2022-12-19T08:17:20.756Z,57.43
2022-12-19T08:19:54.239Z,56.20
2022-12-19T08:22:25.923Z,61.40
2022-12-19T08:24:57.668Z,56.27
2022-12-19T08:27:29.485Z,60.70
2022-12-19T08:30:01.134Z,61.87
2022-12-19T08:32:32.797Z,59.30
2022-12-19T08:35:06.683Z,57.00
2022-12-19T08:37:40.228Z,56.57
2022-12-19T08:40:12.510Z,61.80
2022-12-19T08:42:44.300Z,45.53
2022-12-19T08:45:16.492Z,65.07
2022-12-19T08:47:48.650Z,54.47
2022-12-19T08:50:21.647Z,60.27
2022-12-19T08:52:53.294Z,60.13
2022-12-19T08:55:24.974Z,60.07
2022-12-19T08:57:58.946Z,54.53
2022-12-19T09:00:33.140Z,51.77
2022-12-19T09:03:04.935Z,56.80
2022-12-19T09:06:00.882Z,54.27
2022-12-19T09:08:31.559Z,63.90
2022-12-19T09:11:04.442Z,69.27
2022-12-19T09:13:36.413Z,63.63
2022-12-19T09:16:09.989Z,56.33
2022-12-19T09:18:48.103Z,57.10
2022-12-19T09:21:22.178Z,53.83
2022-12-19T09:23:54.844Z,50.53
2022-12-19T09:26:27.337Z,52.33
2022-12-19T09:29:10.996Z,53.57
2022-12-19T09:31:56.207Z,55.97
2022-12-19T09:34:33.202Z,53.53
2022-12-19T09:37:16.356Z,58.67
2022-12-19T09:39:49.214Z,52.97
2022-12-19T09:42:42.660Z,53.70
2022-12-19T09:45:34.981Z,57.47
2022-12-19T09:48:11.089Z,52.33
2022-12-19T09:51:10.425Z,55.37
2022-12-19T09:53:54.557Z,55.33
2022-12-19T09:56:28.707Z,48.73
2022-12-19T09:59:03.285Z,51.83
2022-12-19T10:01:37.924Z,48.37
2022-12-19T10:04:10.767Z,52.87
2022-12-19T10:07:12.991Z,52.43
2022-12-19T10:12:34.405Z,53.63
2022-12-19T10:12:47.212Z,48.60
2022-12-19T10:15:25.342Z,52.33
2022-12-19T10:18:14.062Z,52.73
2022-12-19T10:20:47.591Z,47.40
2022-12-19T10:23:30.982Z,44.83
2022-12-19T10:26:06.133Z,84.20
2022-12-19T10:28:54.414Z,48.33
2022-12-19T10:31:30.053Z,49.90
2022-12-19T10:34:05.079Z,43.20
2022-12-19T10:37:12.912Z,50.77
2022-12-19T10:39:32.056Z,46.37
2022-12-19T10:42:12.498Z,41.63
2022-12-19T10:44:44.525Z,45.30
2022-12-19T10:47:16.716Z,41.97
2022-12-19T10:49:48.383Z,42.57
2022-12-19T10:52:45.252Z,47.77
2022-12-19T10:55:22.597Z,47.17
2022-12-19T10:57:59.157Z,43.60
2022-12-19T11:00:32.906Z,46.77
2022-12-19T11:03:08.661Z,44.30
2022-12-19T11:05:42.348Z,46.67
2022-12-19T11:08:16.824Z,44.80
2022-12-19T11:12:12.941Z,42.97
2022-12-19T11:18:17.635Z,43.87
2022-12-19T11:29:34.345Z,41.77
2022-12-19T11:29:45.797Z,43.83
2022-12-19T11:30:08.454Z,42.67
2022-12-19T11:30:59.587Z,39.80
2022-12-19T11:34:03.767Z,39.83
2022-12-19T11:36:37.642Z,37.60
2022-12-19T11:39:12.377Z,40.70
2022-12-19T11:41:46.269Z,41.40
2022-12-19T11:44:22.850Z,44.47
2022-12-19T11:47:03.290Z,41.80
2022-12-19T11:49:36.755Z,38.57
2022-12-19T11:52:37.021Z,37.70
2022-12-19T11:55:07.866Z,39.93
2022-12-19T11:57:39.509Z,38.13
2022-12-19T12:00:13.112Z,39.53
2022-12-19T12:03:17.523Z,36.80
2022-12-19T12:05:49.324Z,39.57
2022-12-19T12:12:18.179Z,37.50
2022-12-19T12:17:11.469Z,35.73
2022-12-19T12:24:20.043Z,38.60
2022-12-19T12:24:25.043Z,32.93
2022-12-19T12:31:04.641Z,35.17
2022-12-19T12:31:11.913Z,34.87
2022-12-19T12:31:41.321Z,35.60
2022-12-19T12:32:06.757Z,33.70
2022-12-19T12:35:56.813Z,31.70
2022-12-19T12:38:39.468Z,29.60
2022-12-19T12:41:19.324Z,29.77
2022-12-19T12:44:00.568Z,28.77
2022-12-19T12:46:34.892Z,30.47
2022-12-19T12:49:12.125Z,28.07
2022-12-19T12:51:45.108Z,28.27
2022-12-19T12:54:16.767Z,26.40
2022-12-19T12:56:48.400Z,28.97
2022-12-19T12:59:22.617Z,28.40
2022-12-19T13:01:54.781Z,28.03
2022-12-19T13:04:28.962Z,27.43
2022-12-19T13:07:18.486Z,28.93
2022-12-19T13:09:53.445Z,26.60
2022-12-19T13:12:26.232Z,34.37
2022-12-19T13:15:18.237Z,29.47
2022-12-19T13:18:08.533Z,31.90
2022-12-19T13:20:42.802Z,28.90
2022-12-19T13:23:23.779Z,29.53
2022-12-19T13:25:55.549Z,31.47
2022-12-19T13:28:51.271Z,27.83
2022-12-19T13:31:23.752Z,27.53
2022-12-19T13:34:14.589Z,29.20
2022-12-19T13:39:49.599Z,29.13
2022-12-19T13:40:10.800Z,25.80
2022-12-19T13:43:10.670Z,28.60
2022-12-19T13:45:47.697Z,28.17
2022-12-19T13:48:26.420Z,26.90
2022-12-19T13:50:58.795Z,31.63
2022-12-19T13:53:30.450Z,28.67
2022-12-19T13:56:04.234Z,25.73
2022-12-19T13:58:37.667Z,27.77
2022-12-19T14:01:20.668Z,27.87
2022-12-19T14:03:54.511Z,26.13
2022-12-19T14:06:27.857Z,26.00
2022-12-19T14:11:24.017Z,28.73
2022-12-19T14:12:26.282Z,29.97
2022-12-19T14:14:57.988Z,30.40
2022-12-19T14:17:47.444Z,32.70
2022-12-19T14:22:05.793Z,27.10
2022-12-19T14:23:12.370Z,28.63
2022-12-19T14:28:15.229Z,26.30
2022-12-19T14:28:40.764Z,30.20
2022-12-19T14:31:14.094Z,29.80
2022-12-19T14:34:11.156Z,29.37
2022-12-19T14:36:38.571Z,28.10
2022-12-19T14:39:23.551Z,29.53
2022-12-19T14:42:03.805Z,26.93
2022-12-19T14:54:03.656Z,26.27
2022-12-19T14:54:10.264Z,26.00
2022-12-19T14:54:11.538Z,25.53
2022-12-19T14:54:48.235Z,23.50
2022-12-19T14:59:26.610Z,24.13
2022-12-19T15:02:02.174Z,23.93
2022-12-19T15:04:51.140Z,23.63
2022-12-19T15:07:26.244Z,20.57
2022-12-19T15:11:05.355Z,21.87
2022-12-19T15:14:54.258Z,20.27
2022-12-19T15:15:52.063Z,23.40
2022-12-19T15:18:26.945Z,23.07
2022-12-19T15:20:59.860Z,26.07
2022-12-19T15:23:31.588Z,22.47
2022-12-19T15:26:06.080Z,18.53
2022-12-19T15:28:39.973Z,21.37
2022-12-19T15:31:18.315Z,20.17
2022-12-19T15:34:32.198Z,21.50
2022-12-19T15:36:42.965Z,20.80
2022-12-19T15:39:14.600Z,19.17
2022-12-19T15:41:47.791Z,20.43
2022-12-19T15:44:22.099Z,20.67
2022-12-19T15:46:53.810Z,18.70
2022-12-19T15:49:26.858Z,17.30
2022-12-19T15:51:58.534Z,22.17
2022-12-19T15:57:26.373Z,19.87
2022-12-19T15:59:58.194Z,17.40
2022-12-19T16:02:56.366Z,22.43
2022-12-19T16:05:23.879Z,25.53
2022-12-19T16:07:55.585Z,19.77
2022-12-19T16:10:27.237Z,20.73
2022-12-19T16:12:58.931Z,21.87
2022-12-19T16:15:31.663Z,20.90
2022-12-19T16:18:03.777Z,19.53
2022-12-19T16:20:37.147Z,21.33
2022-12-19T16:23:08.925Z,17.53
2022-12-19T16:25:41.759Z,19.57
2022-12-19T16:28:15.654Z,17.47
2022-12-19T16:30:47.384Z,25.53
2022-12-19T16:33:20.116Z,15.60
2022-12-19T16:36:08.315Z,21.73
2022-12-19T16:38:40.012Z,19.60
2022-12-19T16:41:14.558Z,16.57
2022-12-19T16:43:46.267Z,18.20
2022-12-19T16:46:19.159Z,18.43
2022-12-19T16:48:50.889Z,17.87
2022-12-19T16:51:24.664Z,18.67
2022-12-19T16:53:56.806Z,18.33
2022-12-19T16:56:29.738Z,18.20
2022-12-19T16:59:02.142Z,19.23
2022-12-19T17:01:33.967Z,21.47
2022-12-19T17:04:05.734Z,18.07
2022-12-19T17:06:38.785Z,18.83
2022-12-19T17:09:13.199Z,18.27
2022-12-19T17:11:45.361Z,18.57
2022-12-19T17:14:19.148Z,20.30
2022-12-19T17:16:51.025Z,18.90
2022-12-19T17:19:23.568Z,16.50
2022-12-19T17:21:56.582Z,18.53
2022-12-19T17:24:28.261Z,19.33
2022-12-19T17:26:59.951Z,20.07
2022-12-19T17:29:31.595Z,16.63
2022-12-19T17:32:03.488Z,17.07
2022-12-19T17:34:35.591Z,16.07
2022-12-19T17:37:11.367Z,17.30
2022-12-19T17:39:43.040Z,16.30
2022-12-19T17:42:16.460Z,14.00
2022-12-19T17:44:48.170Z,16.83
2022-12-19T17:47:19.963Z,15.43
2022-12-19T17:49:51.713Z,20.10
2022-12-19T17:52:24.763Z,16.13
2022-12-19T17:54:56.406Z,19.40
2022-12-19T17:57:28.078Z,16.23
2022-12-19T17:59:59.723Z,18.63
2022-12-19T18:02:31.504Z,15.50
2022-12-19T18:05:03.437Z,18.90
2022-12-19T18:07:36.467Z,16.53
2022-12-19T18:10:14.206Z,17.40
2022-12-19T18:12:45.916Z,15.67
2022-12-19T18:15:17.729Z,17.20
2022-12-19T18:17:49.589Z,15.83
2022-12-19T18:20:30.947Z,19.43
2022-12-19T18:23:06.260Z,15.77
2022-12-19T18:25:37.917Z,18.83
2022-12-19T18:28:09.939Z,16.77
2022-12-19T18:30:41.706Z,17.67
2022-12-19T18:33:14.937Z,17.90
2022-12-19T18:35:46.918Z,15.77
2022-12-19T18:38:21.060Z,18.90
2022-12-19T18:40:52.746Z,15.37
2022-12-19T18:43:24.411Z,15.73
2022-12-19T18:45:56.160Z,16.63
2022-12-19T18:48:28.858Z,15.73
2022-12-19T18:51:00.809Z,15.27
2022-12-19T18:53:35.738Z,15.93
2022-12-19T18:56:08.019Z,13.40
2022-12-19T18:58:39.701Z,14.20
2022-12-19T19:01:12.790Z,17.67
2022-12-19T19:03:48.233Z,17.00
2022-12-19T19:06:20.811Z,18.30
2022-12-19T19:08:53.945Z,12.97
2022-12-19T19:11:25.672Z,16.27
2022-12-19T19:13:57.347Z,13.10
2022-12-19T19:16:29.059Z,13.67
2022-12-19T19:19:00.783Z,14.40
2022-12-19T19:21:33.248Z,13.97
2022-12-19T19:24:08.578Z,12.90
2022-12-19T19:26:40.263Z,13.60
2022-12-19T19:29:11.957Z,14.17
2022-12-19T19:31:44.497Z,10.87
2022-12-19T19:34:19.279Z,15.13
2022-12-19T19:36:51.441Z,14.97
2022-12-19T19:39:24.541Z,15.40
2022-12-19T19:41:56.359Z,13.50
2022-12-19T19:44:28.162Z,13.13
2022-12-19T19:46:59.917Z,16.23
2022-12-19T19:49:31.643Z,13.10
2022-12-19T19:52:03.657Z,12.93
2022-12-19T19:54:36.666Z,12.97
2022-12-19T19:57:08.319Z,11.47
2022-12-19T19:59:40.001Z,9.20
2022-12-19T20:02:11.811Z,12.73
2022-12-19T20:04:43.633Z,11.87
2022-12-19T20:07:15.662Z,12.80
2022-12-19T20:09:48.679Z,10.40
2022-12-19T20:12:20.350Z,11.10
2022-12-19T20:14:52.064Z,10.37
2022-12-19T20:17:23.815Z,14.23
2022-12-19T20:19:55.512Z,10.73
2022-12-19T20:22:28.256Z,9.60
2022-12-19T20:25:01.296Z,11.37
2022-12-19T20:27:32.950Z,11.73
2022-12-19T20:30:05.621Z,8.43
2022-12-19T20:32:37.278Z,8.60
2022-12-19T20:35:14.525Z,9.13
2022-12-19T20:37:46.824Z,8.32
2022-12-19T20:40:19.913Z,8.93
2022-12-19T20:42:51.558Z,8.63
2022-12-19T20:45:23.229Z,7.37
2022-12-19T20:47:54.901Z,7.60
2022-12-19T20:50:26.592Z,5.87
2022-12-19T20:52:58.226Z,5.03
2022-12-19T20:55:31.255Z,6.77
2022-12-19T20:58:02.918Z,7.37
2022-12-19T21:00:34.596Z,5.00
2022-12-19T21:05:57.873Z,4.67
2022-12-19T21:08:29.646Z,4.70
2022-12-19T21:11:03.024Z,5.83
2022-12-19T21:13:34.868Z,3.23
2022-12-19T21:16:08.278Z,5.20
2022-12-19T21:18:40.671Z,5.93
2022-12-19T21:21:13.809Z,4.90
2022-12-19T21:23:45.613Z,3.93
2022-12-19T21:26:18.990Z,5.70
2022-12-19T21:28:50.687Z,9.30
2022-12-19T21:31:23.885Z,5.57
2022-12-19T21:33:56.072Z,4.87
2022-12-19T21:36:27.979Z,5.83
2022-12-19T21:38:59.916Z,7.93
2022-12-19T21:41:32.964Z,5.93
2022-12-19T21:44:05.191Z,3.50
2022-12-19T21:46:36.904Z,3.80
2022-12-19T21:49:09.090Z,4.47
2022-12-19T21:51:41.106Z,3.80
2022-12-19T21:54:12.768Z,3.47
2022-12-19T21:56:46.164Z,5.73
2022-12-19T21:59:17.795Z,6.40
2022-12-19T22:01:49.954Z,5.67
2022-12-19T22:04:22.442Z,6.63
2022-12-19T22:06:54.242Z,4.50
2022-12-19T22:09:25.905Z,5.10
2022-12-19T22:11:58.961Z,5.07
2022-12-19T22:14:30.615Z,4.67
2022-12-19T22:17:02.313Z,5.33
2022-12-19T22:19:34.116Z,4.30
2022-12-19T22:22:05.804Z,5.80
2022-12-19T22:24:37.451Z,4.27
2022-12-19T22:27:10.476Z,5.50
2022-12-19T22:29:42.142Z,4.60
2022-12-19T22:32:13.811Z,3.93
2022-12-19T22:34:47.637Z,5.17
2022-12-19T22:37:19.347Z,4.30
2022-12-19T22:39:51.079Z,6.20
2022-12-19T22:42:24.118Z,4.27
2022-12-19T22:44:55.782Z,2.67
2022-12-19T22:47:27.436Z,3.70
2022-12-19T22:49:59.074Z,6.03
2022-12-19T22:52:30.784Z,3.83
2022-12-19T22:55:02.423Z,7.87
2022-12-19T22:57:35.449Z,3.13
